sensor_id;sensor_type;location;lat;lon;timestamp;P1;durP1;ratioP1;P2;durP2;ratioP2
75932;SDS011;64803;52.356;5.310;2023-07-24T00:02:03;8.98;;;3.92;;
75932;SDS011;64803;52.356;5.310;2023-07-24T00:04:30;9.45;;;4.07;;
75932;SDS011;64803;52.356;5.310;2023-07-24T00:06:57;9.23;;;4.13;;
75932;SDS011;64803;52.356;5.310;2023-07-24T00:09:23;10.50;;;4.35;;
75932;SDS011;64803;52.356;5.310;2023-07-24T00:11:49;11.05;;;4.78;;
75932;SDS011;64803;52.356;5.310;2023-07-24T00:14:16;11.55;;;4.40;;
75932;SDS011;64803;52.356;5.310;2023-07-24T00:16:42;9.50;;;4.88;;
75932;SDS011;64803;52.356;5.310;2023-07-24T00:19:08;9.98;;;4.43;;
75932;SDS011;64803;52.356;5.310;2023-07-24T00:21:34;9.20;;;4.68;;
75932;SDS011;64803;52.356;5.310;2023-07-24T00:24:00;9.25;;;4.32;;
75932;SDS011;64803;52.356;5.310;2023-07-24T00:26:26;9.85;;;4.82;;
75932;SDS011;64803;52.356;5.310;2023-07-24T00:28:52;8.70;;;5.20;;
75932;SDS011;64803;52.356;5.310;2023-07-24T00:31:18;15.00;;;4.85;;
75932;SDS011;64803;52.356;5.310;2023-07-24T00:33:44;9.90;;;4.80;;
75932;SDS011;64803;52.356;5.310;2023-07-24T00:36:11;8.95;;;4.75;;
75932;SDS011;64803;52.356;5.310;2023-07-24T00:38:37;11.27;;;5.00;;
75932;SDS011;64803;52.356;5.310;2023-07-24T00:41:03;9.02;;;4.72;;
75932;SDS011;64803;52.356;5.310;2023-07-24T00:43:29;10.35;;;4.95;;
75932;SDS011;64803;52.356;5.310;2023-07-24T00:45:55;10.73;;;4.47;;
75932;SDS011;64803;52.356;5.310;2023-07-24T00:48:22;12.18;;;5.30;;
75932;SDS011;64803;52.356;5.310;2023-07-24T00:50:48;9.85;;;5.22;;
75932;SDS011;64803;52.356;5.310;2023-07-24T00:53:14;11.55;;;4.85;;
75932;SDS011;64803;52.356;5.310;2023-07-24T00:55:42;9.63;;;4.80;;
75932;SDS011;64803;52.356;5.310;2023-07-24T00:58:10;10.68;;;5.13;;
75932;SDS011;64803;52.356;5.310;2023-07-24T01:00:38;10.18;;;4.85;;
75932;SDS011;64803;52.356;5.310;2023-07-24T01:03:05;12.45;;;4.57;;
75932;SDS011;64803;52.356;5.310;2023-07-24T01:05:31;12.02;;;4.57;;
75932;SDS011;64803;52.356;5.310;2023-07-24T01:07:57;10.23;;;4.60;;
75932;SDS011;64803;52.356;5.310;2023-07-24T01:10:23;9.55;;;4.47;;
75932;SDS011;64803;52.356;5.310;2023-07-24T01:13:02;9.52;;;4.57;;
75932;SDS011;64803;52.356;5.310;2023-07-24T01:15:38;9.27;;;4.65;;
75932;SDS011;64803;52.356;5.310;2023-07-24T01:18:11;10.40;;;4.93;;
75932;SDS011;64803;52.356;5.310;2023-07-24T01:20:42;9.00;;;4.82;;
75932;SDS011;64803;52.356;5.310;2023-07-24T01:28:24;8.82;;;4.43;;
75932;SDS011;64803;52.356;5.310;2023-07-24T01:30:52;9.85;;;4.72;;
75932;SDS011;64803;52.356;5.310;2023-07-24T01:33:19;11.00;;;5.55;;
75932;SDS011;64803;52.356;5.310;2023-07-24T01:35:50;10.27;;;4.93;;
75932;SDS011;64803;52.356;5.310;2023-07-24T01:38:19;10.38;;;4.57;;
75932;SDS011;64803;52.356;5.310;2023-07-24T01:40:47;8.43;;;4.40;;
75932;SDS011;64803;52.356;5.310;2023-07-24T01:43:14;9.50;;;4.03;;
75932;SDS011;64803;52.356;5.310;2023-07-24T01:45:40;11.43;;;4.88;;
75932;SDS011;64803;52.356;5.310;2023-07-24T01:48:07;9.65;;;4.32;;
75932;SDS011;64803;52.356;5.310;2023-07-24T01:50:32;8.68;;;4.00;;
75932;SDS011;64803;52.356;5.310;2023-07-24T01:52:58;11.77;;;4.38;;
75932;SDS011;64803;52.356;5.310;2023-07-24T01:55:25;11.20;;;5.50;;
75932;SDS011;64803;52.356;5.310;2023-07-24T01:57:51;12.43;;;4.60;;
75932;SDS011;64803;52.356;5.310;2023-07-24T02:00:17;11.68;;;4.32;;
75932;SDS011;64803;52.356;5.310;2023-07-24T02:02:43;9.23;;;5.00;;
75932;SDS011;64803;52.356;5.310;2023-07-24T02:05:09;12.32;;;5.32;;
75932;SDS011;64803;52.356;5.310;2023-07-24T02:07:35;10.85;;;4.85;;
75932;SDS011;64803;52.356;5.310;2023-07-24T02:10:01;12.77;;;4.65;;
75932;SDS011;64803;52.356;5.310;2023-07-24T02:12:27;9.95;;;5.28;;
75932;SDS011;64803;52.356;5.310;2023-07-24T02:14:53;11.05;;;5.10;;
75932;SDS011;64803;52.356;5.310;2023-07-24T02:17:20;11.82;;;5.00;;
75932;SDS011;64803;52.356;5.310;2023-07-24T02:19:46;11.07;;;5.30;;
75932;SDS011;64803;52.356;5.310;2023-07-24T02:22:12;10.35;;;4.80;;
75932;SDS011;64803;52.356;5.310;2023-07-24T02:24:38;11.85;;;5.13;;
75932;SDS011;64803;52.356;5.310;2023-07-24T02:27:04;11.20;;;4.85;;
75932;SDS011;64803;52.356;5.310;2023-07-24T02:29:31;9.95;;;4.50;;
75932;SDS011;64803;52.356;5.310;2023-07-24T02:31:57;8.82;;;4.50;;
75932;SDS011;64803;52.356;5.310;2023-07-24T02:34:24;8.30;;;3.97;;
75932;SDS011;64803;52.356;5.310;2023-07-24T02:36:52;11.05;;;4.70;;
75932;SDS011;64803;52.356;5.310;2023-07-24T02:39:19;9.23;;;4.40;;
75932;SDS011;64803;52.356;5.310;2023-07-24T02:41:46;11.98;;;5.10;;
75932;SDS011;64803;52.356;5.310;2023-07-24T02:44:13;10.25;;;4.72;;
75932;SDS011;64803;52.356;5.310;2023-07-24T02:46:40;11.00;;;5.53;;
75932;SDS011;64803;52.356;5.310;2023-07-24T02:49:06;11.63;;;5.07;;
75932;SDS011;64803;52.356;5.310;2023-07-24T02:51:33;10.52;;;4.78;;
75932;SDS011;64803;52.356;5.310;2023-07-24T02:53:59;10.48;;;4.53;;
75932;SDS011;64803;52.356;5.310;2023-07-24T02:56:25;9.80;;;5.25;;
75932;SDS011;64803;52.356;5.310;2023-07-24T02:58:51;8.73;;;4.60;;
75932;SDS011;64803;52.356;5.310;2023-07-24T03:01:17;10.95;;;4.70;;
75932;SDS011;64803;52.356;5.310;2023-07-24T03:03:43;10.45;;;4.93;;
75932;SDS011;64803;52.356;5.310;2023-07-24T03:06:09;11.10;;;5.05;;
75932;SDS011;64803;52.356;5.310;2023-07-24T03:08:35;10.40;;;4.82;;
75932;SDS011;64803;52.356;5.310;2023-07-24T03:11:04;11.88;;;4.95;;
75932;SDS011;64803;52.356;5.310;2023-07-24T03:13:30;10.50;;;4.47;;
75932;SDS011;64803;52.356;5.310;2023-07-24T03:15:57;11.05;;;4.68;;
75932;SDS011;64803;52.356;5.310;2023-07-24T03:18:24;11.73;;;5.55;;
75932;SDS011;64803;52.356;5.310;2023-07-24T03:20:51;9.68;;;4.20;;
75932;SDS011;64803;52.356;5.310;2023-07-24T03:23:17;10.88;;;5.32;;
75932;SDS011;64803;52.356;5.310;2023-07-24T03:25:43;12.65;;;4.90;;
75932;SDS011;64803;52.356;5.310;2023-07-24T03:28:09;10.75;;;4.80;;
75932;SDS011;64803;52.356;5.310;2023-07-24T03:30:35;11.55;;;4.40;;
75932;SDS011;64803;52.356;5.310;2023-07-24T03:33:02;10.90;;;5.00;;
75932;SDS011;64803;52.356;5.310;2023-07-24T03:35:30;11.88;;;4.85;;
75932;SDS011;64803;52.356;5.310;2023-07-24T03:37:56;14.32;;;5.18;;
75932;SDS011;64803;52.356;5.310;2023-07-24T03:40:22;11.73;;;4.85;;
75932;SDS011;64803;52.356;5.310;2023-07-24T03:42:48;11.48;;;5.13;;
75932;SDS011;64803;52.356;5.310;2023-07-24T03:45:14;9.75;;;4.80;;
75932;SDS011;64803;52.356;5.310;2023-07-24T03:47:40;12.23;;;5.22;;
75932;SDS011;64803;52.356;5.310;2023-07-24T03:50:06;13.30;;;4.97;;
75932;SDS011;64803;52.356;5.310;2023-07-24T03:52:32;11.23;;;4.60;;
75932;SDS011;64803;52.356;5.310;2023-07-24T03:54:58;12.18;;;5.07;;
75932;SDS011;64803;52.356;5.310;2023-07-24T03:57:24;15.05;;;5.25;;
75932;SDS011;64803;52.356;5.310;2023-07-24T03:59:50;10.63;;;4.60;;
75932;SDS011;64803;52.356;5.310;2023-07-24T04:02:16;10.20;;;4.97;;
75932;SDS011;64803;52.356;5.310;2023-07-24T04:04:42;12.80;;;5.20;;
75932;SDS011;64803;52.356;5.310;2023-07-24T04:07:08;10.02;;;4.38;;
75932;SDS011;64803;52.356;5.310;2023-07-24T04:09:34;10.95;;;4.70;;
75932;SDS011;64803;52.356;5.310;2023-07-24T04:12:00;8.77;;;4.20;;
75932;SDS011;64803;52.356;5.310;2023-07-24T04:14:26;10.45;;;4.22;;
75932;SDS011;64803;52.356;5.310;2023-07-24T04:16:52;13.73;;;4.43;;
75932;SDS011;64803;52.356;5.310;2023-07-24T04:19:19;11.60;;;4.35;;
75932;SDS011;64803;52.356;5.310;2023-07-24T04:21:45;9.85;;;4.65;;
75932;SDS011;64803;52.356;5.310;2023-07-24T04:24:11;11.68;;;4.40;;
75932;SDS011;64803;52.356;5.310;2023-07-24T04:26:37;12.15;;;4.43;;
75932;SDS011;64803;52.356;5.310;2023-07-24T04:31:31;11.90;;;3.83;;
75932;SDS011;64803;52.356;5.310;2023-07-24T04:33:57;11.98;;;4.28;;
75932;SDS011;64803;52.356;5.310;2023-07-24T04:36:23;12.73;;;4.40;;
75932;SDS011;64803;52.356;5.310;2023-07-24T04:38:49;11.70;;;4.47;;
75932;SDS011;64803;52.356;5.310;2023-07-24T04:41:15;10.07;;;4.00;;
75932;SDS011;64803;52.356;5.310;2023-07-24T04:43:41;11.48;;;3.92;;
75932;SDS011;64803;52.356;5.310;2023-07-24T04:46:08;15.35;;;4.30;;
75932;SDS011;64803;52.356;5.310;2023-07-24T04:48:34;11.45;;;3.88;;
75932;SDS011;64803;52.356;5.310;2023-07-24T04:50:59;13.45;;;4.32;;
75932;SDS011;64803;52.356;5.310;2023-07-24T04:53:25;12.98;;;4.35;;
75932;SDS011;64803;52.356;5.310;2023-07-24T04:55:51;13.05;;;5.05;;
75932;SDS011;64803;52.356;5.310;2023-07-24T04:58:17;11.25;;;3.92;;
75932;SDS011;64803;52.356;5.310;2023-07-24T05:00:43;11.10;;;4.32;;
75932;SDS011;64803;52.356;5.310;2023-07-24T05:03:09;11.45;;;3.90;;
75932;SDS011;64803;52.356;5.310;2023-07-24T05:05:37;13.77;;;4.70;;
75932;SDS011;64803;52.356;5.310;2023-07-24T05:08:04;15.27;;;4.60;;
75932;SDS011;64803;52.356;5.310;2023-07-24T05:10:35;12.45;;;4.60;;
75932;SDS011;64803;52.356;5.310;2023-07-24T05:13:01;15.13;;;4.10;;
75932;SDS011;64803;52.356;5.310;2023-07-24T05:15:27;14.50;;;4.40;;
75932;SDS011;64803;52.356;5.310;2023-07-24T05:17:53;14.60;;;5.50;;
75932;SDS011;64803;52.356;5.310;2023-07-24T05:20:19;14.15;;;4.63;;
75932;SDS011;64803;52.356;5.310;2023-07-24T05:22:45;13.27;;;4.00;;
75932;SDS011;64803;52.356;5.310;2023-07-24T05:25:11;11.55;;;4.50;;
75932;SDS011;64803;52.356;5.310;2023-07-24T05:27:38;13.20;;;4.55;;
75932;SDS011;64803;52.356;5.310;2023-07-24T05:30:04;13.48;;;4.90;;
75932;SDS011;64803;52.356;5.310;2023-07-24T05:32:31;10.88;;;4.50;;
75932;SDS011;64803;52.356;5.310;2023-07-24T05:34:57;11.95;;;4.78;;
75932;SDS011;64803;52.356;5.310;2023-07-24T05:37:23;10.45;;;4.60;;
75932;SDS011;64803;52.356;5.310;2023-07-24T05:39:49;13.80;;;4.60;;
75932;SDS011;64803;52.356;5.310;2023-07-24T05:42:15;14.98;;;5.55;;
75932;SDS011;64803;52.356;5.310;2023-07-24T05:44:41;12.77;;;4.72;;
75932;SDS011;64803;52.356;5.310;2023-07-24T05:47:07;12.43;;;4.57;;
75932;SDS011;64803;52.356;5.310;2023-07-24T05:49:33;11.20;;;4.68;;
75932;SDS011;64803;52.356;5.310;2023-07-24T05:51:59;12.75;;;4.22;;
75932;SDS011;64803;52.356;5.310;2023-07-24T05:54:25;16.25;;;5.10;;
75932;SDS011;64803;52.356;5.310;2023-07-24T05:56:51;16.90;;;5.65;;
75932;SDS011;64803;52.356;5.310;2023-07-24T05:59:18;12.07;;;4.30;;
75932;SDS011;64803;52.356;5.310;2023-07-24T06:01:43;16.58;;;5.40;;
75932;SDS011;64803;52.356;5.310;2023-07-24T06:04:09;12.32;;;5.68;;
75932;SDS011;64803;52.356;5.310;2023-07-24T06:06:35;12.50;;;5.10;;
75932;SDS011;64803;52.356;5.310;2023-07-24T06:09:02;14.52;;;5.68;;
75932;SDS011;64803;52.356;5.310;2023-07-24T06:11:28;15.18;;;6.78;;
75932;SDS011;64803;52.356;5.310;2023-07-24T06:13:54;14.00;;;5.47;;
75932;SDS011;64803;52.356;5.310;2023-07-24T06:16:20;11.13;;;4.97;;
75932;SDS011;64803;52.356;5.310;2023-07-24T06:18:46;13.38;;;4.43;;
75932;SDS011;64803;52.356;5.310;2023-07-24T06:21:13;13.90;;;4.93;;
75932;SDS011;64803;52.356;5.310;2023-07-24T06:23:40;13.95;;;4.50;;
75932;SDS011;64803;52.356;5.310;2023-07-24T06:26:06;13.27;;;4.18;;
75932;SDS011;64803;52.356;5.310;2023-07-24T06:28:32;12.73;;;4.57;;
75932;SDS011;64803;52.356;5.310;2023-07-24T06:30:59;11.45;;;4.43;;
75932;SDS011;64803;52.356;5.310;2023-07-24T06:33:25;14.13;;;4.30;;
75932;SDS011;64803;52.356;5.310;2023-07-24T06:35:51;14.35;;;4.03;;
75932;SDS011;64803;52.356;5.310;2023-07-24T06:38:17;11.73;;;4.72;;
75932;SDS011;64803;52.356;5.310;2023-07-24T06:40:43;17.10;;;4.95;;
75932;SDS011;64803;52.356;5.310;2023-07-24T06:43:09;15.45;;;4.75;;
75932;SDS011;64803;52.356;5.310;2023-07-24T06:45:35;13.80;;;4.00;;
75932;SDS011;64803;52.356;5.310;2023-07-24T06:48:01;13.57;;;4.30;;
75932;SDS011;64803;52.356;5.310;2023-07-24T06:50:27;16.88;;;4.25;;
75932;SDS011;64803;52.356;5.310;2023-07-24T06:52:53;14.90;;;4.30;;
75932;SDS011;64803;52.356;5.310;2023-07-24T06:55:19;11.52;;;4.20;;
75932;SDS011;64803;52.356;5.310;2023-07-24T06:57:45;12.25;;;4.05;;
75932;SDS011;64803;52.356;5.310;2023-07-24T07:00:12;15.52;;;4.32;;
75932;SDS011;64803;52.356;5.310;2023-07-24T07:02:39;13.05;;;4.25;;
75932;SDS011;64803;52.356;5.310;2023-07-24T07:05:05;13.38;;;4.03;;
75932;SDS011;64803;52.356;5.310;2023-07-24T07:07:31;16.35;;;4.38;;
75932;SDS011;64803;52.356;5.310;2023-07-24T07:09:57;11.80;;;3.90;;
75932;SDS011;64803;52.356;5.310;2023-07-24T07:12:23;15.68;;;4.78;;
75932;SDS011;64803;52.356;5.310;2023-07-24T07:14:49;12.95;;;3.67;;
75932;SDS011;64803;52.356;5.310;2023-07-24T07:17:15;11.90;;;3.50;;
75932;SDS011;64803;52.356;5.310;2023-07-24T07:19:41;12.65;;;4.68;;
75932;SDS011;64803;52.356;5.310;2023-07-24T07:22:07;12.15;;;3.88;;
75932;SDS011;64803;52.356;5.310;2023-07-24T07:24:33;13.80;;;4.03;;
75932;SDS011;64803;52.356;5.310;2023-07-24T07:26:59;14.63;;;3.70;;
75932;SDS011;64803;52.356;5.310;2023-07-24T07:29:25;12.85;;;4.32;;
75932;SDS011;64803;52.356;5.310;2023-07-24T07:31:51;14.50;;;4.28;;
75932;SDS011;64803;52.356;5.310;2023-07-24T07:34:17;12.30;;;4.20;;
75932;SDS011;64803;52.356;5.310;2023-07-24T07:36:43;10.73;;;3.58;;
75932;SDS011;64803;52.356;5.310;2023-07-24T07:39:09;11.05;;;3.97;;
75932;SDS011;64803;52.356;5.310;2023-07-24T07:41:35;10.85;;;3.67;;
75932;SDS011;64803;52.356;5.310;2023-07-24T07:44:01;10.48;;;3.63;;
75932;SDS011;64803;52.356;5.310;2023-07-24T07:46:27;10.40;;;3.50;;
75932;SDS011;64803;52.356;5.310;2023-07-24T07:48:53;14.18;;;3.70;;
75932;SDS011;64803;52.356;5.310;2023-07-24T07:51:19;12.98;;;4.07;;
75932;SDS011;64803;52.356;5.310;2023-07-24T07:53:45;8.13;;;3.05;;
75932;SDS011;64803;52.356;5.310;2023-07-24T07:56:11;11.02;;;3.70;;
75932;SDS011;64803;52.356;5.310;2023-07-24T07:58:37;12.52;;;3.55;;
75932;SDS011;64803;52.356;5.310;2023-07-24T08:01:04;10.15;;;3.40;;
75932;SDS011;64803;52.356;5.310;2023-07-24T08:03:31;12.63;;;4.00;;
75932;SDS011;64803;52.356;5.310;2023-07-24T08:05:57;8.98;;;3.17;;
75932;SDS011;64803;52.356;5.310;2023-07-24T08:08:24;15.40;;;3.92;;
75932;SDS011;64803;52.356;5.310;2023-07-24T08:10:50;12.60;;;3.67;;
75932;SDS011;64803;52.356;5.310;2023-07-24T08:13:16;9.55;;;3.20;;
75932;SDS011;64803;52.356;5.310;2023-07-24T08:15:42;11.43;;;2.85;;
75932;SDS011;64803;52.356;5.310;2023-07-24T08:18:08;12.65;;;3.75;;
75932;SDS011;64803;52.356;5.310;2023-07-24T08:20:37;13.05;;;3.63;;
75932;SDS011;64803;52.356;5.310;2023-07-24T08:23:04;8.13;;;3.15;;
75932;SDS011;64803;52.356;5.310;2023-07-24T08:25:30;9.52;;;3.08;;
75932;SDS011;64803;52.356;5.310;2023-07-24T08:27:56;7.93;;;2.80;;
75932;SDS011;64803;52.356;5.310;2023-07-24T08:30:22;8.88;;;3.80;;
75932;SDS011;64803;52.356;5.310;2023-07-24T08:32:48;11.75;;;3.50;;
75932;SDS011;64803;52.356;5.310;2023-07-24T08:35:16;12.70;;;3.78;;
75932;SDS011;64803;52.356;5.310;2023-07-24T08:37:43;8.70;;;3.47;;
75932;SDS011;64803;52.356;5.310;2023-07-24T08:40:10;11.93;;;3.88;;
75932;SDS011;64803;52.356;5.310;2023-07-24T08:42:39;11.00;;;3.33;;
75932;SDS011;64803;52.356;5.310;2023-07-24T08:45:11;10.82;;;2.92;;
75932;SDS011;64803;52.356;5.310;2023-07-24T08:47:42;11.00;;;3.75;;
75932;SDS011;64803;52.356;5.310;2023-07-24T08:50:10;12.65;;;3.45;;
75932;SDS011;64803;52.356;5.310;2023-07-24T08:52:40;13.48;;;4.00;;
75932;SDS011;64803;52.356;5.310;2023-07-24T08:55:08;10.45;;;2.90;;
75932;SDS011;64803;52.356;5.310;2023-07-24T08:57:35;9.23;;;3.10;;
75932;SDS011;64803;52.356;5.310;2023-07-24T09:00:01;13.32;;;3.20;;
75932;SDS011;64803;52.356;5.310;2023-07-24T09:02:34;11.85;;;3.53;;
75932;SDS011;64803;52.356;5.310;2023-07-24T09:05:01;8.57;;;3.33;;
75932;SDS011;64803;52.356;5.310;2023-07-24T09:07:27;8.10;;;2.83;;
75932;SDS011;64803;52.356;5.310;2023-07-24T09:09:55;16.10;;;3.80;;
75932;SDS011;64803;52.356;5.310;2023-07-24T09:12:21;9.98;;;3.00;;
75932;SDS011;64803;52.356;5.310;2023-07-24T09:14:49;12.85;;;3.85;;
75932;SDS011;64803;52.356;5.310;2023-07-24T09:17:26;10.50;;;4.18;;
75932;SDS011;64803;52.356;5.310;2023-07-24T09:19:55;10.63;;;3.70;;
75932;SDS011;64803;52.356;5.310;2023-07-24T09:22:22;11.13;;;3.90;;
75932;SDS011;64803;52.356;5.310;2023-07-24T09:24:52;12.20;;;4.68;;
75932;SDS011;64803;52.356;5.310;2023-07-24T09:27:25;10.40;;;3.35;;
75932;SDS011;64803;52.356;5.310;2023-07-24T09:29:52;12.57;;;3.85;;
75932;SDS011;64803;52.356;5.310;2023-07-24T09:34:50;12.80;;;4.72;;
75932;SDS011;64803;52.356;5.310;2023-07-24T09:37:23;10.63;;;4.20;;
75932;SDS011;64803;52.356;5.310;2023-07-24T09:39:52;10.65;;;4.25;;
75932;SDS011;64803;52.356;5.310;2023-07-24T09:42:18;8.20;;;3.88;;
75932;SDS011;64803;52.356;5.310;2023-07-24T09:44:44;10.63;;;4.18;;
75932;SDS011;64803;52.356;5.310;2023-07-24T09:47:10;8.18;;;4.03;;
75932;SDS011;64803;52.356;5.310;2023-07-24T09:49:36;13.15;;;3.97;;
75932;SDS011;64803;52.356;5.310;2023-07-24T09:52:03;10.85;;;3.65;;
75932;SDS011;64803;52.356;5.310;2023-07-24T09:54:35;9.70;;;4.45;;
75932;SDS011;64803;52.356;5.310;2023-07-24T09:57:11;14.02;;;5.13;;
75932;SDS011;64803;52.356;5.310;2023-07-24T09:59:40;11.60;;;4.40;;
75932;SDS011;64803;52.356;5.310;2023-07-24T10:02:07;11.40;;;5.05;;
75932;SDS011;64803;52.356;5.310;2023-07-24T10:04:37;9.60;;;4.15;;
75932;SDS011;64803;52.356;5.310;2023-07-24T10:07:06;10.07;;;3.97;;
75932;SDS011;64803;52.356;5.310;2023-07-24T10:09:33;13.07;;;4.43;;
75932;SDS011;64803;52.356;5.310;2023-07-24T10:11:59;14.63;;;4.75;;
75932;SDS011;64803;52.356;5.310;2023-07-24T10:14:26;12.23;;;5.53;;
75932;SDS011;64803;52.356;5.310;2023-07-24T10:16:55;10.30;;;4.95;;
75932;SDS011;64803;52.356;5.310;2023-07-24T10:19:22;11.27;;;4.53;;
75932;SDS011;64803;52.356;5.310;2023-07-24T10:21:48;11.23;;;4.00;;
75932;SDS011;64803;52.356;5.310;2023-07-24T10:24:16;12.60;;;4.47;;
75932;SDS011;64803;52.356;5.310;2023-07-24T10:26:42;12.10;;;4.22;;
75932;SDS011;64803;52.356;5.310;2023-07-24T10:29:09;12.18;;;4.10;;
75932;SDS011;64803;52.356;5.310;2023-07-24T10:31:35;10.35;;;4.53;;
75932;SDS011;64803;52.356;5.310;2023-07-24T10:34:05;11.25;;;4.32;;
75932;SDS011;64803;52.356;5.310;2023-07-24T10:36:35;9.02;;;4.60;;
75932;SDS011;64803;52.356;5.310;2023-07-24T10:39:02;12.60;;;4.43;;
75932;SDS011;64803;52.356;5.310;2023-07-24T10:41:34;11.27;;;4.63;;
75932;SDS011;64803;52.356;5.310;2023-07-24T10:44:01;10.68;;;4.45;;
75932;SDS011;64803;52.356;5.310;2023-07-24T10:49:03;13.05;;;4.40;;
75932;SDS011;64803;52.356;5.310;2023-07-24T10:51:29;11.00;;;4.72;;
75932;SDS011;64803;52.356;5.310;2023-07-24T10:53:58;9.57;;;4.50;;
75932;SDS011;64803;52.356;5.310;2023-07-24T10:56:24;17.75;;;6.43;;
75932;SDS011;64803;52.356;5.310;2023-07-24T10:58:50;12.98;;;5.05;;
75932;SDS011;64803;52.356;5.310;2023-07-24T11:01:16;11.63;;;5.82;;
75932;SDS011;64803;52.356;5.310;2023-07-24T11:03:43;12.77;;;4.97;;
75932;SDS011;64803;52.356;5.310;2023-07-24T11:06:19;10.82;;;4.55;;
75932;SDS011;64803;52.356;5.310;2023-07-24T11:08:51;10.50;;;4.15;;
75932;SDS011;64803;52.356;5.310;2023-07-24T11:11:27;11.43;;;4.88;;
75932;SDS011;64803;52.356;5.310;2023-07-24T11:13:57;8.68;;;3.50;;
75932;SDS011;64803;52.356;5.310;2023-07-24T11:16:23;13.50;;;5.50;;
75932;SDS011;64803;52.356;5.310;2023-07-24T11:18:50;11.77;;;4.88;;
75932;SDS011;64803;52.356;5.310;2023-07-24T11:21:23;9.32;;;3.80;;
75932;SDS011;64803;52.356;5.310;2023-07-24T11:23:54;7.05;;;2.92;;
75932;SDS011;64803;52.356;5.310;2023-07-24T11:26:21;10.02;;;3.85;;
75932;SDS011;64803;52.356;5.310;2023-07-24T11:28:49;9.15;;;3.85;;
75932;SDS011;64803;52.356;5.310;2023-07-24T11:31:16;8.05;;;3.03;;
75932;SDS011;64803;52.356;5.310;2023-07-24T11:33:45;10.50;;;3.90;;
75932;SDS011;64803;52.356;5.310;2023-07-24T11:36:12;13.65;;;4.80;;
75932;SDS011;64803;52.356;5.310;2023-07-24T11:38:44;7.95;;;3.75;;
75932;SDS011;64803;52.356;5.310;2023-07-24T11:41:12;8.50;;;3.85;;
75932;SDS011;64803;52.356;5.310;2023-07-24T11:43:47;9.27;;;3.80;;
75932;SDS011;64803;52.356;5.310;2023-07-24T11:48:50;7.15;;;3.65;;
75932;SDS011;64803;52.356;5.310;2023-07-24T11:51:19;10.05;;;3.10;;
75932;SDS011;64803;52.356;5.310;2023-07-24T11:53:45;9.27;;;3.28;;
75932;SDS011;64803;52.356;5.310;2023-07-24T11:56:15;7.28;;;2.85;;
75932;SDS011;64803;52.356;5.310;2023-07-24T11:58:41;8.35;;;3.00;;
75932;SDS011;64803;52.356;5.310;2023-07-24T12:01:07;10.80;;;3.03;;
75932;SDS011;64803;52.356;5.310;2023-07-24T12:03:34;8.45;;;2.50;;
75932;SDS011;64803;52.356;5.310;2023-07-24T12:06:00;5.22;;;2.20;;
75932;SDS011;64803;52.356;5.310;2023-07-24T12:08:32;7.78;;;3.20;;
75932;SDS011;64803;52.356;5.310;2023-07-24T12:10:59;8.15;;;2.42;;
75932;SDS011;64803;52.356;5.310;2023-07-24T12:13:26;7.43;;;2.22;;
75932;SDS011;64803;52.356;5.310;2023-07-24T12:15:53;9.77;;;2.90;;
75932;SDS011;64803;52.356;5.310;2023-07-24T12:18:19;7.25;;;2.75;;
75932;SDS011;64803;52.356;5.310;2023-07-24T12:20:45;5.07;;;1.58;;
75932;SDS011;64803;52.356;5.310;2023-07-24T12:23:11;7.32;;;2.42;;
75932;SDS011;64803;52.356;5.310;2023-07-24T12:25:37;6.50;;;1.92;;
75932;SDS011;64803;52.356;5.310;2023-07-24T12:28:03;5.43;;;1.90;;
75932;SDS011;64803;52.356;5.310;2023-07-24T12:30:29;7.45;;;2.15;;
75932;SDS011;64803;52.356;5.310;2023-07-24T12:32:55;5.40;;;2.20;;
75932;SDS011;64803;52.356;5.310;2023-07-24T12:35:21;4.05;;;1.58;;
75932;SDS011;64803;52.356;5.310;2023-07-24T12:37:47;7.63;;;2.85;;
75932;SDS011;64803;52.356;5.310;2023-07-24T12:40:13;5.78;;;2.47;;
75932;SDS011;64803;52.356;5.310;2023-07-24T12:42:40;4.38;;;2.00;;
75932;SDS011;64803;52.356;5.310;2023-07-24T12:45:06;8.57;;;2.88;;
75932;SDS011;64803;52.356;5.310;2023-07-24T12:47:32;5.80;;;2.60;;
75932;SDS011;64803;52.356;5.310;2023-07-24T12:50:00;7.00;;;2.13;;
75932;SDS011;64803;52.356;5.310;2023-07-24T12:52:26;7.90;;;2.75;;
75932;SDS011;64803;52.356;5.310;2023-07-24T12:54:54;4.97;;;1.83;;
75932;SDS011;64803;52.356;5.310;2023-07-24T12:57:20;4.93;;;1.90;;
75932;SDS011;64803;52.356;5.310;2023-07-24T12:59:46;7.65;;;2.60;;
75932;SDS011;64803;52.356;5.310;2023-07-24T13:02:12;5.93;;;2.58;;
75932;SDS011;64803;52.356;5.310;2023-07-24T13:04:38;5.43;;;2.60;;
75932;SDS011;64803;52.356;5.310;2023-07-24T13:07:04;5.15;;;2.10;;
75932;SDS011;64803;52.356;5.310;2023-07-24T13:09:30;5.38;;;2.28;;
75932;SDS011;64803;52.356;5.310;2023-07-24T13:11:56;5.13;;;1.92;;
75932;SDS011;64803;52.356;5.310;2023-07-24T13:14:22;4.30;;;1.60;;
75932;SDS011;64803;52.356;5.310;2023-07-24T13:16:49;10.10;;;2.30;;
75932;SDS011;64803;52.356;5.310;2023-07-24T13:19:16;4.63;;;2.00;;
75932;SDS011;64803;52.356;5.310;2023-07-24T13:21:42;5.75;;;2.05;;
75932;SDS011;64803;52.356;5.310;2023-07-24T13:24:11;3.85;;;1.52;;
75932;SDS011;64803;52.356;5.310;2023-07-24T13:26:37;3.03;;;1.13;;
75932;SDS011;64803;52.356;5.310;2023-07-24T13:29:03;4.25;;;1.05;;
75932;SDS011;64803;52.356;5.310;2023-07-24T13:31:30;6.15;;;1.70;;
75932;SDS011;64803;52.356;5.310;2023-07-24T13:33:56;7.47;;;1.55;;
75932;SDS011;64803;52.356;5.310;2023-07-24T13:36:22;4.38;;;1.45;;
75932;SDS011;64803;52.356;5.310;2023-07-24T13:38:48;4.07;;;1.60;;
75932;SDS011;64803;52.356;5.310;2023-07-24T13:41:16;6.38;;;1.45;;
75932;SDS011;64803;52.356;5.310;2023-07-24T13:43:42;3.30;;;1.25;;
75932;SDS011;64803;52.356;5.310;2023-07-24T13:46:08;5.95;;;1.35;;
75932;SDS011;64803;52.356;5.310;2023-07-24T13:48:34;5.45;;;1.20;;
75932;SDS011;64803;52.356;5.310;2023-07-24T13:51:00;5.65;;;1.25;;
75932;SDS011;64803;52.356;5.310;2023-07-24T13:53:26;4.38;;;1.42;;
75932;SDS011;64803;52.356;5.310;2023-07-24T13:55:53;7.95;;;1.30;;
75932;SDS011;64803;52.356;5.310;2023-07-24T13:58:19;5.35;;;1.10;;
75932;SDS011;64803;52.356;5.310;2023-07-24T14:00:45;5.47;;;1.40;;
75932;SDS011;64803;52.356;5.310;2023-07-24T14:03:11;5.88;;;1.15;;
75932;SDS011;64803;52.356;5.310;2023-07-24T14:05:37;4.28;;;1.25;;
75932;SDS011;64803;52.356;5.310;2023-07-24T14:08:04;8.30;;;1.38;;
75932;SDS011;64803;52.356;5.310;2023-07-24T14:10:30;5.07;;;1.40;;
75932;SDS011;64803;52.356;5.310;2023-07-24T14:12:56;3.53;;;1.60;;
75932;SDS011;64803;52.356;5.310;2023-07-24T14:15:22;6.40;;;1.42;;
75932;SDS011;64803;52.356;5.310;2023-07-24T14:17:49;4.75;;;1.50;;
75932;SDS011;64803;52.356;5.310;2023-07-24T14:20:15;7.30;;;1.40;;
75932;SDS011;64803;52.356;5.310;2023-07-24T14:22:41;5.10;;;1.08;;
75932;SDS011;64803;52.356;5.310;2023-07-24T14:25:07;5.63;;;1.40;;
75932;SDS011;64803;52.356;5.310;2023-07-24T14:27:33;11.00;;;1.42;;
75932;SDS011;64803;52.356;5.310;2023-07-24T14:29:59;6.25;;;1.52;;
75932;SDS011;64803;52.356;5.310;2023-07-24T14:32:25;5.55;;;1.17;;
75932;SDS011;64803;52.356;5.310;2023-07-24T14:34:52;7.10;;;1.48;;
75932;SDS011;64803;52.356;5.310;2023-07-24T14:37:18;8.27;;;2.22;;
75932;SDS011;64803;52.356;5.310;2023-07-24T14:39:45;8.13;;;1.15;;
75932;SDS011;64803;52.356;5.310;2023-07-24T14:42:11;7.85;;;1.50;;
75932;SDS011;64803;52.356;5.310;2023-07-24T14:44:37;3.53;;;1.25;;
75932;SDS011;64803;52.356;5.310;2023-07-24T14:47:04;4.53;;;1.30;;
75932;SDS011;64803;52.356;5.310;2023-07-24T14:49:30;8.32;;;1.60;;
75932;SDS011;64803;52.356;5.310;2023-07-24T14:51:56;4.82;;;1.10;;